Time;durP1;ratioP1;P1;durP2;ratioP2;P2;SDS_P1;SDS_P2;PMS_P1;PMS_P2;Temp;Humidity;BMP_temperature;BMP_pressure;BME280_temperature;BME280_humidity;BME280_pressure;Samples;Min_cycle;Max_cycle;Signal;HPM_P1;HPM_P2
2022/06/10 00:02:18;;;;;;;3.05;2.10;;;;;;;17.00;84.68;93843.44;5037632;28;20223;-74
2022/06/10 00:04:45;;;;;;;2.72;2.00;;;;;;;17.09;84.13;93840.31;5050545;28;20832;-73
2022/06/10 00:07:11;;;;;;;4.88;2.90;;;;;;;17.00;84.59;93849.69;5050693;28;20212;-74
2022/06/10 00:09:38;;;;;;;3.13;2.83;;;;;;;17.01;84.00;93840.31;5049445;28;20241;-74
2022/06/10 00:12:07;;;;;;;5.13;2.72;;;;;;;17.05;84.49;93832.13;5038439;28;20216;-73
2022/06/10 00:14:34;;;;;;;7.47;2.75;;;;;;;16.94;84.70;93831.34;5049798;28;20235;-73
2022/06/10 00:17:01;;;;;;;2.95;2.20;;;;;;;17.00;83.90;93829.75;5050433;28;20207;-73
2022/06/10 00:19:28;;;;;;;4.13;2.25;;;;;;;16.99;84.02;93834.44;5050368;28;20232;-74
2022/06/10 00:21:54;;;;;;;9.82;2.47;;;;;;;17.03;83.85;93840.72;5050758;28;20202;-73
2022/06/10 00:24:21;;;;;;;2.85;2.22;;;;;;;16.99;83.44;93837.19;5050402;28;20219;-73
2022/06/10 00:26:48;;;;;;;4.10;2.55;;;;;;;16.94;83.71;93834.84;5050504;28;20245;-74
2022/06/10 00:29:16;;;;;;;3.42;2.95;;;;;;;16.82;84.46;93829.72;5050743;28;20301;-74
2022/06/10 00:31:43;;;;;;;4.03;3.10;;;;;;;16.86;84.51;93833.25;5050858;28;20204;-74
2022/06/10 00:34:10;;;;;;;3.75;2.50;;;;;;;16.90;84.42;93828.56;5050656;28;20274;-74
2022/06/10 00:36:36;;;;;;;4.45;2.80;;;;;;;17.00;85.30;93830.56;5050304;28;20231;-73
2022/06/10 00:39:03;;;;;;;5.68;2.88;;;;;;;17.00;85.04;93827.81;5050234;28;20281;-74
2022/06/10 00:41:30;;;;;;;3.47;2.38;;;;;;;17.00;85.21;93827.81;5050478;28;20702;-74
2022/06/10 00:43:57;;;;;;;2.72;2.17;;;;;;;17.06;85.63;93825.50;5054199;28;20283;-74
2022/06/10 00:46:36;;;;;;;4.35;2.40;;;;;;;17.13;85.01;93816.50;5050542;28;20250;-74
2022/06/10 00:49:13;;;;;;;5.82;2.80;;;;;;;17.04;85.08;93820.41;5049661;28;20555;-74
2022/06/10 00:51:44;;;;;;;3.15;2.35;;;;;;;17.05;85.13;93821.97;5050319;28;20738;-73
2022/06/10 00:54:19;;;;;;;4.45;3.70;;;;;;;16.95;85.69;93817.25;5050620;28;20271;-74
2022/06/10 00:56:51;;;;;;;6.43;3.17;;;;;;;16.89;86.14;93818.81;5050350;28;20226;-73
2022/06/10 00:59:23;;;;;;;4.35;2.50;;;;;;;16.81;86.67;93809.00;5049591;28;20234;-73
2022/06/10 01:01:54;;;;;;;3.47;2.55;;;;;;;16.84;86.55;93810.97;5050423;28;20220;-73
2022/06/10 01:04:21;;;;;;;6.68;3.15;;;;;;;16.79;86.91;93818.78;5050256;28;20281;-73
2022/06/10 01:06:48;;;;;;;4.30;3.08;;;;;;;16.69;87.46;93820.28;5049882;28;20265;-73
2022/06/10 01:09:16;;;;;;;6.10;2.60;;;;;;;16.69;88.06;93817.56;5050018;28;20270;-73
2022/06/10 01:11:57;;;;;;;4.40;2.55;;;;;;;16.74;87.74;93816.41;5036342;28;20224;-73
2022/06/10 01:14:37;;;;;;;4.15;2.85;;;;;;;16.76;87.54;93814.84;5049745;28;20694;-73
2022/06/10 01:17:13;;;;;;;4.30;3.63;;;;;;;16.85;87.35;93820.75;5049773;28;20224;-74
2022/06/10 01:20:19;;;;;;;4.55;2.90;;;;;;;16.80;87.81;93812.94;5049532;28;20226;-75
2022/06/10 01:23:17;;;;;;;5.90;3.03;;;;;;;16.93;87.18;93814.13;5029023;28;20223;-74
2022/06/10 01:26:22;;;;;;;4.40;3.22;;;;;;;16.83;87.68;93814.09;5053479;28;20227;-74
2022/06/10 01:29:20;;;;;;;7.38;2.97;;;;;;;16.82;87.73;93807.81;5044955;28;20227;-74
2022/06/10 01:31:54;;;;;;;6.35;2.83;;;;;;;16.84;87.79;93816.44;5041316;28;20227;-73
2022/06/10 01:34:28;;;;;;;5.20;3.22;;;;;;;16.84;87.56;93810.97;5053671;28;20277;-73
2022/06/10 01:37:04;;;;;;;4.38;2.70;;;;;;;16.85;87.58;93812.53;5053364;28;20680;-73
2022/06/10 01:39:44;;;;;;;4.97;2.90;;;;;;;16.78;87.95;93812.53;5053251;28;20231;-73
2022/06/10 01:42:16;;;;;;;5.32;3.20;;;;;;;16.81;88.06;93811.72;5052832;28;20261;-73
2022/06/10 01:45:03;;;;;;;6.05;3.92;;;;;;;16.90;88.06;93819.59;5056593;28;20637;-75
2022/06/10 01:47:39;;;;;;;4.57;3.20;;;;;;;16.87;87.72;93831.28;5053276;28;20235;-73
2022/06/10 01:50:13;;;;;;;4.65;3.13;;;;;;;16.77;87.75;93821.13;5053062;28;20211;-74
2022/06/10 01:52:46;;;;;;;5.13;3.72;;;;;;;16.83;87.66;93825.81;5053330;28;20188;-73
2022/06/10 01:55:19;;;;;;;4.45;2.67;;;;;;;16.77;88.11;93832.84;5053349;28;20196;-74
2022/06/10 01:57:53;;;;;;;7.13;3.88;;;;;;;16.73;88.84;93826.56;5053014;28;20232;-74
2022/06/10 02:00:23;;;;;;;6.38;3.63;;;;;;;16.77;89.34;93821.91;5052361;28;20224;-74
2022/06/10 02:02:57;;;;;;;4.65;2.88;;;;;;;16.79;88.98;93819.56;5052921;28;20192;-74
2022/06/10 02:05:28;;;;;;;4.95;3.22;;;;;;;16.88;88.47;93821.91;5052993;28;20195;-74
2022/06/10 02:08:02;;;;;;;6.82;3.90;;;;;;;16.92;88.14;93826.25;5052798;28;20224;-74
2022/06/10 02:10:36;;;;;;;4.78;3.60;;;;;;;16.95;88.32;93824.66;5045170;28;20500;-75
2022/06/10 02:13:07;;;;;;;7.88;3.10;;;;;;;16.93;89.43;93825.06;5048396;28;20312;-76
2022/06/10 02:15:40;;;;;;;4.05;2.75;;;;;;;16.85;89.29;93818.00;5052789;28;20216;-76
2022/06/10 02:18:14;;;;;;;6.68;3.25;;;;;;;16.84;88.99;93827.38;5052922;28;20215;-76
2022/06/10 02:20:47;;;;;;;3.65;2.72;;;;;;;16.79;88.33;93830.50;5052383;28;20223;-75
2022/06/10 02:23:19;;;;;;;5.05;3.92;;;;;;;16.94;89.06;93832.13;5052149;28;20342;-76
2022/06/10 02:25:50;;;;;;;4.05;3.10;;;;;;;16.97;89.15;93839.53;5052735;28;20219;-76
2022/06/10 02:28:21;;;;;;;3.50;2.72;;;;;;;17.02;89.13;93830.94;5052649;28;20219;-76
2022/06/10 02:31:03;;;;;;;4.43;2.90;;;;;;;16.97;88.76;93836.78;5052097;28;20609;-76
2022/06/10 02:33:33;;;;;;;5.35;3.70;;;;;;;16.96;88.04;93829.75;5052344;28;20192;-77
2022/06/10 02:36:09;;;;;;;5.90;4.45;;;;;;;17.02;88.13;93839.16;5052545;28;20304;-77
2022/06/10 02:38:46;;;;;;;4.22;3.15;;;;;;;17.05;88.54;93835.66;5052623;28;20239;-77
2022/06/10 02:41:19;;;;;;;7.07;4.10;;;;;;;17.01;89.65;93836.81;5039825;28;20210;-77
2022/06/10 02:43:54;;;;;;;6.32;4.25;;;;;;;17.01;90.16;93840.31;5054953;28;20630;-76
2022/06/10 02:46:24;;;;;;;4.90;3.42;;;;;;;17.12;89.75;93842.28;5052188;28;20205;-76
2022/06/10 02:49:00;;;;;;;5.88;3.63;;;;;;;17.08;89.92;93850.53;5052583;28;20215;-76
2022/06/10 02:51:28;;;;;;;4.20;2.92;;;;;;;17.11;89.63;93846.19;5051759;28;20314;-76
2022/06/10 02:53:55;;;;;;;5.53;3.42;;;;;;;17.01;90.29;93843.06;5051792;28;20269;-77
2022/06/10 02:56:24;;;;;;;4.63;3.33;;;;;;;17.00;90.45;93852.44;5051743;28;20705;-77
2022/06/10 03:01:48;;;;;;;7.43;3.63;;;;;;;16.86;90.96;93841.47;5051218;28;20191;-78
2022/06/10 03:04:26;;;;;;;4.90;3.40;;;;;;;16.87;91.04;93850.44;5051895;28;20196;-78
2022/06/10 03:07:13;;;;;;;5.00;3.55;;;;;;;16.84;91.30;93849.25;5051968;28;20211;-78
2022/06/10 03:09:56;;;;;;;7.03;3.53;;;;;;;16.85;91.74;93848.09;5050462;28;20219;-77
2022/06/10 03:12:30;;;;;;;5.80;3.75;;;;;;;16.79;91.49;93841.44;5031770;28;20235;-75
2022/06/10 03:15:07;;;;;;;8.73;4.25;;;;;;;16.65;91.74;93855.84;5048131;28;20235;-76
2022/06/10 03:17:57;;;;;;;6.05;4.55;;;;;;;16.73;92.46;93853.13;5051511;28;20239;-76
2022/06/10 03:20:36;;;;;;;4.97;3.45;;;;;;;16.73;92.35;93853.13;5040610;28;20200;-75
2022/06/10 03:23:13;;;;;;;5.72;4.10;;;;;;;16.54;93.33;93851.44;5051478;28;20232;-76
2022/06/10 03:25:44;;;;;;;5.40;3.90;;;;;;;16.48;93.40;93853.78;5051857;28;20200;-76
2022/06/10 03:28:16;;;;;;;6.65;5.82;;;;;;;16.50;93.30;93850.66;5051568;28;20264;-75
2022/06/10 03:30:48;;;;;;;6.03;3.95;;;;;;;16.45;93.35;93853.75;5051168;28;20285;-75
2022/06/10 03:33:22;;;;;;;7.07;4.25;;;;;;;16.48;92.84;93859.25;5051286;28;20261;-76
2022/06/10 03:35:54;;;;;;;6.03;4.07;;;;;;;16.48;92.38;93861.19;5051337;28;20620;-75
2022/06/10 03:38:21;;;;;;;5.82;4.22;;;;;;;16.54;92.62;93856.91;5051154;28;20196;-75
2022/06/10 03:40:54;;;;;;;6.00;4.10;;;;;;;16.52;92.85;93862.00;5051401;28;20199;-75
2022/06/10 03:43:21;;;;;;;6.40;4.18;;;;;;;16.51;93.45;93857.72;5052308;28;20282;-75
2022/06/10 03:45:53;;;;;;;7.22;3.80;;;;;;;16.46;93.83;93858.84;5053078;28;20253;-76
2022/06/10 03:48:23;;;;;;;6.85;4.15;;;;;;;16.61;93.85;93862.44;5050856;28;20246;-76
2022/06/10 03:50:52;;;;;;;6.68;3.95;;;;;;;16.54;92.59;93865.13;5051107;28;20307;-84
2022/06/10 03:53:23;;;;;;;6.60;4.43;;;;;;;16.43;92.64;93861.56;5050754;28;20640;-78
2022/06/10 03:55:50;;;;;;;8.35;3.88;;;;;;;16.35;93.91;93866.22;5047630;28;20219;-77
2022/06/10 03:58:17;;;;;;;7.30;4.03;;;;;;;16.20;94.16;93873.56;5036573;28;20231;-78
2022/06/10 04:00:45;;;;;;;8.45;4.90;;;;;;;16.19;95.14;93884.88;5045076;28;20665;-77
2022/06/10 04:03:12;;;;;;;6.13;4.38;;;;;;;16.22;95.57;93881.38;5050820;28;20285;-75
2022/06/10 04:05:39;;;;;;;6.90;4.18;;;;;;;16.23;95.47;93875.53;5050495;28;20208;-77
2022/06/10 04:08:08;;;;;;;7.25;4.57;;;;;;;16.25;96.01;93881.41;5049058;28;20207;-78
2022/06/10 04:10:35;;;;;;;6.97;4.00;;;;;;;16.32;95.95;93878.69;5039203;28;20224;-77
2022/06/10 04:13:02;;;;;;;6.90;4.20;;;;;;;16.44;95.67;93874.06;5050517;28;20223;-77
2022/06/10 04:15:29;;;;;;;8.23;3.88;;;;;;;16.43;94.39;93883.44;5050551;28;20281;-73
2022/06/10 04:17:57;;;;;;;5.85;3.72;;;;;;;16.46;94.00;93879.94;5050270;28;20257;-75
2022/06/10 04:20:27;;;;;;;7.10;4.05;;;;;;;16.65;94.48;93875.00;5050449;28;20598;-75
2022/06/10 04:22:54;;;;;;;5.85;4.00;;;;;;;16.74;94.42;93873.84;5050493;28;20223;-75
2022/06/10 04:25:23;;;;;;;7.13;4.63;;;;;;;16.80;94.48;93875.84;5050744;28;20219;-75
2022/06/10 04:27:51;;;;;;;9.77;4.07;;;;;;;16.96;94.97;93868.06;5050292;28;20614;-75
2022/06/10 04:30:25;;;;;;;5.53;3.72;;;;;;;17.04;94.79;93875.13;5051008;28;20222;-74
2022/06/10 04:32:53;;;;;;;4.75;3.60;;;;;;;16.83;93.62;93869.56;5050328;28;20276;-76
2022/06/10 04:35:20;;;;;;;5.03;3.40;;;;;;;16.97;91.46;93872.34;5050404;28;20319;-75
2022/06/10 04:37:48;;;;;;;4.78;2.92;;;;;;;16.97;92.03;93880.56;5050705;28;20585;-75
2022/06/10 04:40:17;;;;;;;4.22;3.10;;;;;;;17.17;91.24;93878.28;5050445;28;20269;-76
2022/06/10 04:42:46;;;;;;;6.45;4.82;;;;;;;17.15;90.51;93880.63;5050229;28;20291;-76
2022/06/10 04:45:14;;;;;;;6.63;3.17;;;;;;;17.18;90.20;93879.06;5054302;28;20218;-76
2022/06/10 04:47:41;;;;;;;6.32;3.80;;;;;;;16.96;90.04;93879.00;5050204;28;20204;-77
2022/06/10 04:50:10;;;;;;;4.78;3.65;;;;;;;16.92;90.54;93889.16;5050574;28;20265;-76
2022/06/10 04:52:38;;;;;;;6.93;3.33;;;;;;;16.76;90.87;93883.25;5050537;28;20311;-77
2022/06/10 04:55:06;;;;;;;4.18;2.97;;;;;;;16.65;91.57;93893.34;5050475;28;20394;-74
2022/06/10 04:57:33;;;;;;;9.05;3.90;;;;;;;16.65;92.30;93885.94;5050274;28;20207;-76
2022/06/10 05:00:02;;;;;;;4.32;3.13;;;;;;;16.71;92.75;93883.59;5053387;28;20277;-75
2022/06/10 05:02:29;;;;;;;6.25;3.90;;;;;;;16.74;92.75;93893.78;5054030;28;20643;-74
2022/06/10 05:04:56;;;;;;;6.97;3.72;;;;;;;16.67;92.00;93894.50;5054177;28;20311;-74
2022/06/10 05:07:23;;;;;;;5.95;3.70;;;;;;;16.67;92.50;93896.50;5048116;28;20273;-76
2022/06/10 05:09:50;;;;;;;7.43;5.20;;;;;;;16.69;92.44;93902.34;5042008;28;20708;-75
2022/06/10 05:12:17;;;;;;;9.65;4.72;;;;;;;16.75;93.57;93892.59;5042948;28;20666;-75
2022/06/10 05:14:44;;;;;;;7.65;4.90;;;;;;;16.73;93.83;93894.94;5049534;28;20223;-75
2022/06/10 05:17:12;;;;;;;10.57;6.32;;;;;;;16.90;93.48;93890.72;5045508;28;20219;-75
2022/06/10 05:19:39;;;;;;;6.88;4.43;;;;;;;16.99;93.93;93900.13;5044998;28;20228;-75
2022/06/10 05:22:06;;;;;;;8.45;5.72;;;;;;;16.95;92.64;93909.47;5043659;28;20307;-75
2022/06/10 05:24:33;;;;;;;6.57;3.72;;;;;;;16.95;92.63;93907.53;5053003;28;20207;-75
2022/06/10 05:26:59;;;;;;;5.63;3.92;;;;;;;16.81;92.86;93915.69;5053663;28;20203;-76
2022/06/10 05:29:26;;;;;;;7.03;3.92;;;;;;;16.75;92.48;93906.28;5046931;28;20211;-75
2022/06/10 05:31:53;;;;;;;7.22;3.53;;;;;;;16.99;93.88;93913.81;5043391;28;20241;-75
2022/06/10 05:37:06;;;;;;;7.13;3.88;;;;;;;17.11;92.92;93909.94;5046226;28;20652;-75
2022/06/10 05:39:34;;;;;;;4.95;3.60;;;;;;;17.20;92.27;93917.78;5047967;28;20227;-76
2022/06/10 05:42:07;;;;;;;5.55;3.30;;;;;;;17.21;92.42;93911.94;5044031;28;20262;-75
2022/06/10 05:44:37;;;;;;;6.95;5.10;;;;;;;17.21;91.44;93911.16;5048332;28;20208;-76
2022/06/10 05:47:07;;;;;;;7.07;4.18;;;;;;;17.18;91.45;93911.91;5037146;28;20354;-74
2022/06/10 05:49:37;;;;;;;6.25;4.88;;;;;;;17.23;91.94;93903.31;5052668;28;20269;-76
2022/06/10 05:52:06;;;;;;;6.85;5.10;;;;;;;17.21;90.86;93905.69;5052526;28;20231;-75
2022/06/10 05:54:34;;;;;;;6.35;4.32;;;;;;;17.24;91.17;93913.09;5053255;28;20204;-75
2022/06/10 05:57:01;;;;;;;6.03;3.83;;;;;;;17.24;91.24;93910.34;5053437;28;20299;-76
2022/06/10 05:59:29;;;;;;;4.50;3.53;;;;;;;17.26;91.95;93918.97;5053126;28;20622;-76
2022/06/10 06:01:57;;;;;;;4.90;3.22;;;;;;;17.14;91.23;93919.31;5053188;28;20303;-76
2022/06/10 06:04:24;;;;;;;4.57;3.20;;;;;;;17.20;90.97;93924.06;5053056;28;20199;-75
2022/06/10 06:06:53;;;;;;;7.90;3.15;;;;;;;17.37;90.89;93922.50;5053016;28;20989;-76
2022/06/10 06:09:21;;;;;;;7.13;3.53;;;;;;;17.47;90.49;93916.28;5052073;28;20287;-76
2022/06/10 06:11:50;;;;;;;7.63;4.05;;;;;;;17.43;90.47;93918.22;5052899;28;20235;-76
2022/06/10 06:14:18;;;;;;;7.07;3.75;;;;;;;17.28;90.33;93922.09;5052700;28;20315;-77
2022/06/10 06:16:51;;;;;;;6.53;4.35;;;;;;;17.32;91.55;93920.16;5052647;28;20220;-76
2022/06/10 06:19:18;;;;;;;10.63;5.55;;;;;;;17.33;92.03;93919.00;5052175;28;20716;-75
2022/06/10 06:21:47;;;;;;;9.85;4.22;;;;;;;17.24;91.60;93926.78;5052952;28;20227;-74
2022/06/10 06:24:15;;;;;;;6.88;4.35;;;;;;;17.19;92.73;93927.97;5052566;28;20254;-76
2022/06/10 06:26:42;;;;;;;11.60;6.00;;;;;;;17.19;93.36;93935.38;5052837;28;20325;-75
2022/06/10 06:29:09;;;;;;;8.73;7.65;;;;;;;17.26;93.49;93941.66;5052370;28;20227;-76
2022/06/10 06:31:36;;;;;;;12.15;8.40;;;;;;;17.14;93.72;93943.97;5052372;28;20670;-76
2022/06/10 06:34:04;;;;;;;10.00;7.63;;;;;;;17.20;94.92;93936.97;5052334;28;20207;-76
2022/06/10 06:36:38;;;;;;;11.32;7.80;;;;;;;17.39;94.53;93944.81;5052596;28;20683;-76
2022/06/10 06:39:05;;;;;;;11.18;8.18;;;;;;;17.35;92.35;93938.56;5051809;28;20570;-75
2022/06/10 06:41:34;;;;;;;10.18;7.68;;;;;;;17.28;92.11;93939.31;5052309;28;20203;-75
2022/06/10 06:44:01;;;;;;;7.70;5.35;;;;;;;17.26;92.57;93940.88;5052392;28;20310;-75
2022/06/10 06:46:27;;;;;;;8.95;5.43;;;;;;;17.41;92.75;93939.75;5052207;28;20663;-75
2022/06/10 06:48:55;;;;;;;8.30;5.40;;;;;;;17.45;93.64;93943.28;5052099;28;20258;-76
2022/06/10 06:51:21;;;;;;;8.20;5.07;;;;;;;17.46;91.95;93944.84;5052048;28;20237;-75
2022/06/10 06:53:48;;;;;;;8.00;5.60;;;;;;;17.52;91.34;93948.75;5051590;28;20200;-76
2022/06/10 06:56:15;;;;;;;8.55;4.57;;;;;;;17.32;90.32;93947.53;5052163;28;20768;-75
2022/06/10 06:58:43;;;;;;;10.25;5.47;;;;;;;17.60;91.91;93939.41;5051956;28;20207;-77
2022/06/10 07:01:10;;;;;;;6.97;4.32;;;;;;;17.69;89.61;93934.34;5051564;28;20240;-75
2022/06/10 07:03:37;;;;;;;8.40;5.75;;;;;;;17.79;88.83;93935.53;5052257;28;20208;-76
2022/06/10 07:06:04;;;;;;;7.97;5.00;;;;;;;17.96;88.15;93944.94;5052177;28;20223;-76
2022/06/10 07:08:32;;;;;;;7.97;4.90;;;;;;;17.99;88.31;93944.16;5051753;28;20199;-76
2022/06/10 07:10:59;;;;;;;7.35;5.30;;;;;;;18.03;89.01;93944.97;5039662;28;20235;-76
2022/06/10 07:13:26;;;;;;;6.30;4.40;;;;;;;18.27;88.78;93949.66;5050479;28;20709;-76
2022/06/10 07:15:55;;;;;;;7.45;4.20;;;;;;;18.06;88.30;93944.94;5051865;28;20242;-77
2022/06/10 07:18:22;;;;;;;7.55;5.07;;;;;;;18.17;87.60;93944.97;5051360;28;20238;-75
2022/06/10 07:20:49;;;;;;;6.68;4.43;;;;;;;18.30;87.37;93948.09;5050587;28;20676;-76
2022/06/10 07:23:18;;;;;;;7.90;4.40;;;;;;;18.15;87.19;93941.03;5051339;28;20261;-75
2022/06/10 07:25:45;;;;;;;8.55;6.68;;;;;;;18.26;87.53;93942.59;5051525;28;20306;-76
2022/06/10 07:28:12;;;;;;;13.63;5.70;;;;;;;18.31;86.59;93939.44;5038141;28;20219;-75
2022/06/10 07:30:40;;;;;;;8.18;4.10;;;;;;;18.47;85.70;93945.31;5051429;28;20662;-76
2022/06/10 07:33:09;;;;;;;7.35;4.80;;;;;;;18.60;86.30;93944.91;5051156;28;20231;-75
2022/06/10 07:35:36;;;;;;;7.88;5.00;;;;;;;18.90;85.06;93947.97;5050817;28;20281;-74
2022/06/10 07:38:04;;;;;;;6.82;4.63;;;;;;;18.97;83.26;93953.47;5050704;28;20203;-75
2022/06/10 07:43:19;;;;;;;7.78;5.30;;;;;;;18.76;83.69;93942.53;5040905;28;20226;-74
2022/06/10 07:45:46;;;;;;;10.90;5.63;;;;;;;18.80;83.73;93948.81;5052222;28;20291;-73
2022/06/10 07:48:15;;;;;;;9.32;5.20;;;;;;;19.04;82.87;93953.44;5048483;28;20282;-74
2022/06/10 07:50:43;;;;;;;11.25;8.07;;;;;;;18.87;83.55;93940.53;5036590;28;20554;-74
2022/06/10 07:53:17;;;;;;;9.88;5.70;;;;;;;19.31;82.77;93955.66;5050674;28;20712;-74
2022/06/10 07:55:45;;;;;;;11.27;4.85;;;;;;;19.43;80.32;93958.75;5050786;28;20227;-75
2022/06/10 07:58:14;;;;;;;7.50;5.00;;;;;;;19.48;80.09;93949.31;5050180;28;20278;-75
2022/06/10 08:00:40;;;;;;;6.93;4.70;;;;;;;19.27;79.93;93952.19;5043754;28;20278;-75
2022/06/10 08:03:08;;;;;;;8.60;6.18;;;;;;;19.44;79.93;93943.03;5044045;28;20280;-75
2022/06/10 08:05:36;;;;;;;6.88;4.57;;;;;;;20.28;77.54;93940.16;5050639;28;20288;-76
2022/06/10 08:08:04;;;;;;;6.38;4.30;;;;;;;20.43;76.13;93941.63;5049451;28;20755;-76
2022/06/10 08:10:36;;;;;;;5.97;4.47;;;;;;;20.55;75.48;93939.16;5050485;28;20226;-76
2022/06/10 08:13:04;;;;;;;8.38;5.95;;;;;;;20.60;74.77;93953.66;5047927;28;20231;-75
2022/06/10 08:15:32;;;;;;;8.85;5.53;;;;;;;20.51;73.80;93954.91;5040093;28;20255;-74
2022/06/10 08:17:59;;;;;;;8.00;5.70;;;;;;;20.72;74.16;93953.16;5049225;28;20235;-75
2022/06/10 08:23:18;;;;;;;7.43;4.88;;;;;;;20.57;73.04;93958.78;5037204;28;20245;-74
2022/06/10 08:25:45;;;;;;;7.18;5.20;;;;;;;20.88;71.33;93947.88;5050532;28;20566;-76
2022/06/10 08:28:12;;;;;;;6.22;4.70;;;;;;;20.87;71.09;93957.31;5048664;28;20216;-75
2022/06/10 08:30:39;;;;;;;6.10;3.97;;;;;;;21.00;69.92;93952.84;5049232;28;20254;-75
2022/06/10 08:33:07;;;;;;;4.63;3.90;;;;;;;20.96;69.50;93957.59;5051544;28;20245;-75
2022/06/10 08:35:35;;;;;;;4.32;3.45;;;;;;;21.77;66.78;93955.84;5052690;28;20211;-74
2022/06/10 08:38:05;;;;;;;4.15;3.75;;;;;;;22.60;64.95;93962.47;5054011;28;20254;-75
2022/06/10 08:40:41;;;;;;;4.10;3.47;;;;;;;23.09;62.04;93960.06;5054166;28;20735;-76
2022/06/10 08:43:15;;;;;;;3.58;2.85;;;;;;;22.95;60.25;93965.84;5054613;28;20293;-76
2022/06/10 08:45:49;;;;;;;4.38;2.58;;;;;;;22.53;60.05;93965.34;5054153;28;20215;-76
2022/06/10 08:48:24;;;;;;;3.80;3.00;;;;;;;22.63;60.67;93967.16;5054671;28;20191;-77
2022/06/10 08:51:01;;;;;;;3.72;3.42;;;;;;;22.98;60.98;93976.03;5054303;28;20683;-75
2022/06/10 08:53:49;;;;;;;5.03;4.05;;;;;;;23.12;62.13;93975.75;5053968;28;20272;-76
2022/06/10 08:56:24;;;;;;;5.95;4.32;;;;;;;23.54;61.67;93973.41;5054339;28;20220;-75
2022/06/10 08:58:59;;;;;;;6.25;4.63;;;;;;;23.92;61.37;93971.00;5054504;28;20198;-78
2022/06/10 09:01:28;;;;;;;5.03;4.53;;;;;;;22.94;61.18;93972.56;5054323;28;20597;-75
2022/06/10 09:04:02;;;;;;;5.65;4.38;;;;;;;22.12;62.15;93970.34;5053973;28;20219;-75
2022/06/10 09:06:42;;;;;;;8.10;4.97;;;;;;;21.65;65.38;93981.22;5053962;28;20298;-76
2022/06/10 09:09:13;;;;;;;7.40;5.32;;;;;;;21.54;66.12;93980.56;5054292;28;20220;-77
2022/06/10 09:11:51;;;;;;;6.65;5.53;;;;;;;21.52;66.64;93983.75;5053576;28;20203;-76
2022/06/10 09:14:21;;;;;;;7.00;5.35;;;;;;;21.61;66.59;93974.97;5053641;28;20623;-74
2022/06/10 09:16:53;;;;;;;8.77;5.55;;;;;;;21.61;66.76;93974.97;5053869;28;20354;-77
2022/06/10 09:19:29;;;;;;;8.23;5.00;;;;;;;21.50;67.54;93979.84;5053777;28;20288;-76
2022/06/10 09:22:03;;;;;;;6.25;4.97;;;;;;;21.25;69.33;93974.63;5053540;28;20234;-76
2022/06/10 09:24:35;;;;;;;8.32;5.28;;;;;;;20.94;70.31;93976.50;5053305;28;20765;-73
2022/06/10 09:27:10;;;;;;;6.15;4.78;;;;;;;20.56;71.01;93970.97;5052787;28;20203;-73
2022/06/10 09:29:38;;;;;;;8.27;5.32;;;;;;;20.51;71.91;93976.13;5053668;28;20192;-77
2022/06/10 09:32:10;;;;;;;7.07;5.55;;;;;;;20.74;70.88;93973.56;5052848;28;20200;-76
2022/06/10 09:34:50;;;;;;;6.03;5.10;;;;;;;20.71;71.95;93979.09;5052200;28;20195;-76
2022/06/10 09:37:25;;;;;;;5.95;5.28;;;;;;;20.53;71.40;93979.25;5052690;28;20191;-76
2022/06/10 09:43:06;;;;;;;6.60;5.60;;;;;;;19.99;75.20;93994.56;5053382;28;20258;-77
2022/06/10 09:45:39;;;;;;;7.15;6.20;;;;;;;20.18;78.18;94002.31;5056164;28;20231;-78
2022/06/10 09:48:26;;;;;;;8.57;6.10;;;;;;;19.15;80.09;94022.03;5052468;28;20192;-81
2022/06/10 09:51:00;;;;;;;9.50;6.88;;;;;;;18.23;87.45;94002.91;5052710;28;20227;-73
2022/06/10 09:53:45;;;;;;;10.60;7.78;;;;;;;17.71;91.41;94008.72;5053494;28;20227;-71
2022/06/10 09:56:33;;;;;;;9.77;6.22;;;;;;;17.62;92.63;94021.97;5042397;28;20275;-70
2022/06/10 09:59:17;;;;;;;7.63;5.72;;;;;;;17.40;92.59;94031.25;5053029;28;20230;-70
2022/06/10 10:01:52;;;;;;;11.98;8.30;;;;;;;17.63;95.09;94041.94;5052325;28;20732;-70
2022/06/10 10:04:38;;;;;;;6.45;5.15;;;;;;;17.51;92.54;94040.31;5053269;28;20759;-70
2022/06/10 10:07:12;;;;;;;8.52;5.05;;;;;;;17.28;92.25;94037.09;5053144;28;20204;-70
2022/06/10 10:09:49;;;;;;;4.53;2.90;;;;;;;17.33;91.70;94039.47;5051775;28;20198;-71
2022/06/10 10:12:31;;;;;;;3.28;2.35;;;;;;;17.07;92.28;94034.25;5032989;28;20698;-70
2022/06/10 10:15:10;;;;;;;4.32;2.45;;;;;;;16.84;92.22;94043.50;5050759;28;20239;-70
2022/06/10 10:17:55;;;;;;;2.63;1.85;;;;;;;16.97;93.68;94044.75;5052407;28;20241;-71
2022/06/10 10:20:30;;;;;;;5.20;4.10;;;;;;;17.24;91.01;94042.53;5041555;28;20310;-70
2022/06/10 10:23:11;;;;;;;3.85;2.80;;;;;;;17.24;91.15;94044.50;5052698;28;20650;-71
2022/06/10 10:25:41;;;;;;;5.13;4.55;;;;;;;17.28;93.45;94048.81;5052375;28;20257;-71
2022/06/10 10:28:19;;;;;;;5.63;5.00;;;;;;;17.24;91.45;94048.00;5052751;28;20298;-70
2022/06/10 10:30:57;;;;;;;5.60;4.13;;;;;;;17.33;90.44;94050.41;5052212;28;20715;-70
2022/06/10 10:33:24;;;;;;;10.60;5.97;;;;;;;17.16;94.45;94051.09;5052592;28;20192;-70
2022/06/10 10:35:52;;;;;;;6.93;4.80;;;;;;;17.26;96.17;94047.63;5052792;28;20326;-70
2022/06/10 10:38:31;;;;;;;8.68;5.15;;;;;;;17.52;95.69;94047.34;5052297;28;20289;-70
2022/06/10 10:40:59;;;;;;;11.00;5.57;;;;;;;17.56;94.69;94045.41;5051992;28;20230;-69
2022/06/10 10:43:28;;;;;;;10.25;5.20;;;;;;;17.77;95.22;94040.03;5054042;28;20215;-70
2022/06/10 10:46:00;;;;;;;8.98;5.95;;;;;;;17.92;94.54;94045.53;5053415;28;20740;-70
2022/06/10 10:48:31;;;;;;;8.85;6.20;;;;;;;18.06;93.03;94045.56;5051787;28;20728;-70
2022/06/10 10:51:01;;;;;;;7.88;6.00;;;;;;;18.36;93.17;94037.78;5052080;28;20339;-70
2022/06/10 10:53:34;;;;;;;7.63;5.50;;;;;;;18.29;90.58;94035.03;5052487;28;20243;-70
2022/06/10 10:56:03;;;;;;;5.10;3.90;;;;;;;18.41;90.42;94031.91;5050970;28;20289;-70
2022/06/10 10:58:34;;;;;;;6.40;3.90;;;;;;;18.36;89.94;94029.53;5051815;28;20215;-70
2022/06/10 11:01:06;;;;;;;5.38;3.67;;;;;;;18.60;90.61;94038.19;5051770;28;20239;-71
2022/06/10 11:03:37;;;;;;;5.32;3.50;;;;;;;18.81;89.59;94027.22;5051740;28;20586;-70
2022/06/10 11:06:06;;;;;;;5.65;3.83;;;;;;;19.04;88.76;94032.25;5051839;28;20223;-70
2022/06/10 11:08:35;;;;;;;8.50;6.28;;;;;;;19.23;87.80;94037.31;5051728;28;20297;-70
2022/06/10 11:11:13;;;;;;;7.18;4.95;;;;;;;19.41;88.78;94031.75;5038883;28;21018;-70
2022/06/10 11:13:49;;;;;;;5.68;4.47;;;;;;;19.52;88.31;94038.81;5038738;28;20231;-70
2022/06/10 11:16:34;;;;;;;7.00;4.47;;;;;;;19.69;86.50;94026.16;5051520;28;20191;-70
2022/06/10 11:19:11;;;;;;;7.95;5.28;;;;;;;19.61;83.99;94024.63;5051871;28;20225;-71
2022/06/10 11:22:09;;;;;;;5.68;3.38;;;;;;;19.95;83.85;94021.34;5051369;28;20229;-71
2022/06/10 11:24:39;;;;;;;7.50;5.65;;;;;;;20.42;82.62;94017.88;5051781;28;20265;-72
2022/06/10 11:27:20;;;;;;;6.90;5.15;;;;;;;20.45;84.10;94017.06;5051474;28;20238;-70
2022/06/10 11:29:58;;;;;;;10.80;7.05;;;;;;;21.00;83.84;94020.91;5051108;28;20199;-70
2022/06/10 11:32:29;;;;;;;6.63;5.47;;;;;;;21.02;83.58;94011.06;5051782;28;20322;-70
2022/06/10 11:35:00;;;;;;;7.82;5.90;;;;;;;21.40;82.33;94013.81;5051368;28;20642;-71
2022/06/10 11:37:32;;;;;;;7.97;5.97;;;;;;;21.79;80.90;94014.13;5051324;28;20318;-71
2022/06/10 11:40:06;;;;;;;7.95;5.57;;;;;;;22.16;77.38;94009.69;5051353;28;20314;-71
2022/06/10 11:42:41;;;;;;;7.38;5.88;;;;;;;22.44;75.74;94000.97;5050961;28;20301;-73
2022/06/10 11:45:17;;;;;;;6.80;5.47;;;;;;;22.90;74.06;94002.22;5055293;28;20265;-74
2022/06/10 11:47:53;;;;;;;6.80;5.45;;;;;;;23.23;76.73;94003.22;5051250;28;20195;-73
2022/06/10 11:50:27;;;;;;;6.55;5.53;;;;;;;23.31;72.56;94005.41;5051335;28;20575;-73
2022/06/10 11:53:00;;;;;;;7.40;5.05;;;;;;;22.30;70.71;94003.97;5051278;28;20276;-73
2022/06/10 11:55:30;;;;;;;5.93;5.30;;;;;;;21.58;75.39;94008.88;5050935;28;20224;-73
2022/06/10 12:00:51;;;;;;;6.85;4.85;;;;;;;21.59;73.24;94010.44;5037608;28;20765;-73
2022/06/10 12:03:37;;;;;;;8.55;5.28;;;;;;;22.11;76.00;94008.19;5051219;28;20254;-73
2022/06/10 12:06:09;;;;;;;6.88;5.50;;;;;;;21.59;75.61;94002.19;5051009;28;20184;-73
2022/06/10 12:08:46;;;;;;;6.32;5.20;;;;;;;22.07;75.15;93987.38;5050639;28;20273;-73
2022/06/10 12:11:28;;;;;;;7.20;5.22;;;;;;;22.34;74.20;93993.66;5036959;28;20228;-73